Delhi, Canada
Current Conditions -  °F | °C
As of 2:00 PM on Friday 24 Oct 2014 (Local Time) from CYXU Reporting Station
Scattered Clouds Scattered Clouds  
Wind Chill: 59°   Ceiling: Unl
Heat Index: 59°   Visibility: 12mi
Dew Point: 41°   Wind: 8mph
Humidity: 51%   Direction: 290°WNW
Pressure: 30.01"   Gusts: NA
Location:  42.85°N, 80.49°W
Report Text: CYXU 241800Z 29007KT 12SM SCT240 15/05 A3001 RMK CI4 SLP167 DENSITY ALT 1000FT
Loading
Personal Weather Stations






























Interactive Weather Map New forecast layout! Learn more

10-Day Weather Forecast

Advertisements
Track Severe Weather on mobile